Time;durP1;ratioP1;P1;durP2;ratioP2;P2;SDS_P1;SDS_P2;PMS_P1;PMS_P2;Temp;Humidity;BMP_temperature;BMP_pressure;BME280_temperature;BME280_humidity;BME280_pressure;Samples;Min_cycle;Max_cycle;Signal;HPM_P1;HPM_P2
2022/07/25 00:01:10;;;;;;;9.13;7.05;;;;;;;19.33;68.85;97123.56;4989906;28;20050;-64
2022/07/25 00:03:37;;;;;;;10.32;7.97;;;;;;;19.29;69.40;97112.41;4990662;28;20451;-64
2022/07/25 00:06:05;;;;;;;11.10;8.25;;;;;;;19.32;69.19;97116.47;4992221;28;20410;-63
2022/07/25 00:08:38;;;;;;;10.65;8.48;;;;;;;19.34;68.93;97117.78;4990966;28;20117;-64
2022/07/25 00:11:05;;;;;;;10.38;7.93;;;;;;;19.35;69.13;97115.84;4989976;28;20034;-64
2022/07/25 00:13:32;;;;;;;9.82;7.75;;;;;;;19.43;69.01;97119.75;4991604;28;20046;-64
2022/07/25 00:15:58;;;;;;;12.60;8.20;;;;;;;19.49;68.02;97116.53;4991011;28;20038;-64
2022/07/25 00:18:25;;;;;;;10.05;8.32;;;;;;;19.52;69.14;97122.50;4992524;28;20043;-64
2022/07/25 00:20:51;;;;;;;10.98;8.50;;;;;;;19.60;68.42;97113.50;4991713;28;20038;-63
2022/07/25 00:23:18;;;;;;;10.13;7.40;;;;;;;19.66;68.18;97111.41;4992195;28;20045;-63
2022/07/25 00:25:44;;;;;;;10.38;7.28;;;;;;;19.68;68.11;97117.41;4990165;28;20053;-63
2022/07/25 00:28:11;;;;;;;15.70;7.60;;;;;;;19.68;68.24;97115.47;4991549;28;20046;-64
2022/07/25 00:30:38;;;;;;;10.73;7.82;;;;;;;19.77;67.56;97115.50;4992569;28;20188;-63
2022/07/25 00:33:04;;;;;;;9.68;7.82;;;;;;;19.72;68.50;97113.69;4991971;28;20053;-64
2022/07/25 00:35:31;;;;;;;14.95;8.02;;;;;;;19.74;67.77;97118.88;4991607;28;20046;-64
2022/07/25 00:37:58;;;;;;;13.30;7.65;;;;;;;19.74;68.26;97111.47;4991715;28;20045;-64
2022/07/25 00:40:24;;;;;;;10.60;7.93;;;;;;;19.72;68.09;97113.69;4988707;28;20088;-64
2022/07/25 00:42:51;;;;;;;10.45;7.85;;;;;;;19.72;68.20;97113.69;4986532;28;20046;-64
2022/07/25 00:45:17;;;;;;;9.15;7.30;;;;;;;19.70;68.13;97112.41;4986933;28;20054;-63
2022/07/25 00:47:44;;;;;;;10.63;7.85;;;;;;;19.73;68.09;97117.25;4985882;28;20089;-63
2022/07/25 00:50:10;;;;;;;10.57;7.57;;;;;;;19.77;67.84;97110.00;4986181;28;20046;-64
2022/07/25 00:52:37;;;;;;;11.02;7.95;;;;;;;19.77;68.04;97115.50;4986254;28;20050;-63
2022/07/25 00:55:04;;;;;;;11.48;7.72;;;;;;;19.81;67.88;97110.16;4986206;28;20049;-63
2022/07/25 00:57:31;;;;;;;10.30;8.05;;;;;;;19.86;67.80;97110.84;4986203;28;20046;-64
2022/07/25 00:59:57;;;;;;;9.15;7.18;;;;;;;19.82;67.84;97104.34;4986117;28;20050;-64
2022/07/25 01:02:24;;;;;;;11.82;8.10;;;;;;;19.86;67.67;97099.84;4986343;28;20054;-64
2022/07/25 01:04:50;;;;;;;9.60;7.78;;;;;;;19.89;67.82;97103.88;4985793;28;20039;-64
2022/07/25 01:07:17;;;;;;;9.82;8.00;;;;;;;19.95;67.54;97096.31;4985712;28;20510;-64
2022/07/25 01:09:44;;;;;;;11.30;7.85;;;;;;;19.95;67.58;97091.63;4985735;28;20097;-64
2022/07/25 01:12:11;;;;;;;9.82;7.70;;;;;;;19.98;67.44;97085.50;4985568;28;20065;-64
2022/07/25 01:14:38;;;;;;;10.50;8.13;;;;;;;19.98;67.47;97084.69;4986461;28;20054;-64
2022/07/25 01:17:04;;;;;;;10.85;7.75;;;;;;;19.97;67.61;97083.88;4985225;28;20042;-64
2022/07/25 01:19:31;;;;;;;9.82;7.75;;;;;;;19.85;68.27;97086.41;4982787;28;20069;-64
2022/07/25 01:21:57;;;;;;;11.32;8.05;;;;;;;19.82;68.39;97082.38;4986376;28;20093;-64
2022/07/25 01:24:24;;;;;;;10.90;7.85;;;;;;;19.79;68.33;97087.72;4985276;28;20054;-64
2022/07/25 01:26:51;;;;;;;8.93;7.72;;;;;;;19.73;68.88;97087.06;4986180;28;20054;-64
2022/07/25 01:29:17;;;;;;;9.18;8.07;;;;;;;19.70;68.84;97077.50;4986406;28;20306;-64
2022/07/25 01:31:44;;;;;;;10.50;8.93;;;;;;;19.71;68.85;97084.63;4985728;28;20535;-63
2022/07/25 01:34:10;;;;;;;10.90;7.88;;;;;;;19.85;68.30;97078.19;4986484;28;20043;-63
2022/07/25 01:36:37;;;;;;;9.95;7.68;;;;;;;19.95;68.16;97082.56;4984668;28;20046;-63
2022/07/25 01:39:04;;;;;;;10.13;7.72;;;;;;;19.99;67.74;97078.09;4985878;28;20053;-63
2022/07/25 01:41:30;;;;;;;9.85;7.78;;;;;;;19.98;67.49;97073.69;4979210;28;20089;-64
2022/07/25 01:43:57;;;;;;;9.35;7.07;;;;;;;20.02;67.31;97077.44;4985771;28;20276;-64
2022/07/25 01:46:23;;;;;;;10.13;8.30;;;;;;;20.06;67.14;97070.19;4985936;28;20054;-64
2022/07/25 01:48:50;;;;;;;11.48;8.00;;;;;;;19.99;67.92;97075.34;4980428;28;20054;-64
2022/07/25 01:51:16;;;;;;;10.75;8.00;;;;;;;19.90;68.09;97069.78;4991094;28;20074;-63
2022/07/25 01:53:46;;;;;;;10.20;7.55;;;;;;;19.79;68.67;97071.22;4986593;28;20053;-64
2022/07/25 01:56:13;;;;;;;9.70;7.63;;;;;;;19.74;68.86;97073.00;4982326;28;20065;-63
2022/07/25 01:58:40;;;;;;;11.98;8.38;;;;;;;19.67;68.93;97071.84;4985490;28;20070;-64
2022/07/25 02:01:06;;;;;;;9.50;7.22;;;;;;;19.67;69.19;97069.91;4985556;28;20116;-63
2022/07/25 02:03:33;;;;;;;10.32;8.77;;;;;;;19.66;69.21;97065.56;4985645;28;20046;-64
2022/07/25 02:06:03;;;;;;;10.13;7.70;;;;;;;19.61;69.23;97077.47;4985982;28;20479;-64
2022/07/25 02:08:30;;;;;;;9.75;8.35;;;;;;;19.59;69.23;97062.44;4985497;28;20356;-64
2022/07/25 02:10:57;;;;;;;11.57;7.93;;;;;;;19.43;70.04;97070.31;4985452;28;20050;-64
2022/07/25 02:13:26;;;;;;;9.48;8.02;;;;;;;19.24;70.91;97058.47;4985792;28;20073;-64
2022/07/25 02:15:52;;;;;;;12.23;8.02;;;;;;;19.21;70.76;97064.56;4987763;28;20073;-64
2022/07/25 02:18:19;;;;;;;9.88;8.30;;;;;;;19.22;70.89;97060.72;4988181;28;20178;-64
2022/07/25 02:20:46;;;;;;;9.40;7.57;;;;;;;19.30;70.53;97061.88;4988831;28;20109;-64
2022/07/25 02:23:12;;;;;;;10.70;7.70;;;;;;;19.36;70.47;97051.56;4989418;28;20054;-64
2022/07/25 02:25:39;;;;;;;11.15;8.85;;;;;;;19.19;71.37;97049.56;4984730;28;20051;-64
2022/07/25 02:28:06;;;;;;;9.60;7.57;;;;;;;19.10;71.57;97046.78;4988590;28;20477;-64
2022/07/25 02:30:36;;;;;;;12.55;8.73;;;;;;;19.12;71.72;97041.00;4988999;28;20549;-64
2022/07/25 02:33:02;;;;;;;9.02;7.80;;;;;;;19.20;71.29;97048.47;4989491;28;20046;-64
2022/07/25 02:35:29;;;;;;;12.85;8.63;;;;;;;19.19;71.46;97055.88;4988653;28;20093;-63
2022/07/25 02:37:55;;;;;;;12.00;7.82;;;;;;;19.14;71.56;97047.78;4987366;28;20067;-64
2022/07/25 02:40:22;;;;;;;10.20;8.48;;;;;;;19.09;71.78;97051.47;4988512;28;20038;-64
2022/07/25 02:42:48;;;;;;;11.18;9.00;;;;;;;19.14;71.48;97049.72;4988473;28;20325;-64
2022/07/25 02:45:15;;;;;;;11.27;8.32;;;;;;;19.26;71.30;97049.91;4988842;28;20532;-64
2022/07/25 02:47:42;;;;;;;10.82;7.72;;;;;;;19.33;71.14;97043.97;4988531;28;20046;-64
2022/07/25 02:50:08;;;;;;;11.52;8.95;;;;;;;19.43;70.58;97042.88;4988322;28;20494;-64
2022/07/25 02:52:40;;;;;;;10.75;8.05;;;;;;;19.58;70.01;97039.69;4988738;28;20596;-64
2022/07/25 02:55:07;;;;;;;12.70;8.38;;;;;;;19.75;69.39;97044.41;4987594;28;20054;-64
2022/07/25 02:57:35;;;;;;;10.20;7.78;;;;;;;19.90;68.78;97039.56;4988143;28;20536;-64
2022/07/25 03:00:05;;;;;;;9.85;8.70;;;;;;;19.93;68.40;97044.41;4988621;28;20050;-64
2022/07/25 03:02:31;;;;;;;10.95;8.55;;;;;;;19.85;68.67;97037.78;4988296;28;20045;-64
2022/07/25 03:04:58;;;;;;;11.65;8.40;;;;;;;19.76;68.90;97034.22;4989088;28;20050;-64
2022/07/25 03:07:24;;;;;;;11.40;8.85;;;;;;;19.69;69.55;97031.13;4987843;28;20089;-64
2022/07/25 03:09:51;;;;;;;10.98;8.60;;;;;;;19.66;69.37;97035.34;4988883;28;20052;-64
2022/07/25 03:12:17;;;;;;;11.13;8.93;;;;;;;19.63;69.34;97031.31;4988420;28;20545;-64
2022/07/25 03:14:44;;;;;;;11.80;9.10;;;;;;;19.63;69.53;97025.00;4984922;28;20053;-64
2022/07/25 03:17:10;;;;;;;12.65;9.02;;;;;;;19.62;69.59;97026.94;4988136;28;20050;-64
2022/07/25 03:19:37;;;;;;;10.75;8.13;;;;;;;19.57;69.59;97027.06;4988078;28;20223;-64
2022/07/25 03:22:04;;;;;;;11.60;8.63;;;;;;;19.62;69.27;97026.94;4988475;28;20042;-64
2022/07/25 03:24:30;;;;;;;12.93;8.73;;;;;;;19.57;69.68;97018.03;4987724;28;20046;-64
2022/07/25 03:26:57;;;;;;;9.88;8.10;;;;;;;19.50;69.87;97013.81;4987785;28;20654;-64
2022/07/25 03:29:23;;;;;;;10.35;8.98;;;;;;;19.47;70.03;97008.94;4987829;28;20043;-64
2022/07/25 03:31:50;;;;;;;10.73;9.25;;;;;;;19.45;70.35;97013.16;4986010;28;20046;-64
2022/07/25 03:34:17;;;;;;;13.85;8.90;;;;;;;19.55;69.55;97006.56;4987992;28;20049;-64
2022/07/25 03:36:43;;;;;;;13.25;8.45;;;;;;;19.56;69.45;97011.72;4987517;28;20074;-64
2022/07/25 03:39:10;;;;;;;10.65;8.40;;;;;;;19.63;69.36;97003.84;4987853;28;20053;-64
2022/07/25 03:41:36;;;;;;;13.10;8.82;;;;;;;19.65;69.29;96999.97;4987776;28;20042;-64
2022/07/25 03:44:03;;;;;;;13.80;8.95;;;;;;;19.62;69.06;97002.22;4965998;28;20506;-64
2022/07/25 03:46:30;;;;;;;11.02;8.77;;;;;;;19.68;69.09;97002.06;4966360;28;20046;-64
2022/07/25 03:48:57;;;;;;;11.25;8.60;;;;;;;19.73;68.63;97001.91;4981167;28;20069;-64
2022/07/25 03:51:23;;;;;;;11.57;8.20;;;;;;;19.77;68.32;96997.38;4985480;28;20104;-64
2022/07/25 03:54:02;;;;;;;11.98;8.68;;;;;;;19.81;68.62;96997.53;4985104;28;20053;-64
2022/07/25 03:56:36;;;;;;;12.60;8.80;;;;;;;19.81;68.21;96995.63;4984445;28;20053;-64
2022/07/25 03:59:11;;;;;;;11.95;8.13;;;;;;;19.78;68.11;96996.25;4985637;28;20373;-57
2022/07/25 04:01:37;;;;;;;13.68;8.30;;;;;;;19.93;67.88;96996.94;4984819;28;20042;-55
2022/07/25 04:04:04;;;;;;;13.18;8.73;;;;;;;20.04;67.42;97000.19;4985548;28;20046;-56
2022/07/25 04:06:31;;;;;;;12.73;8.73;;;;;;;20.17;66.86;96988.22;4981294;28;20050;-53
2022/07/25 04:08:58;;;;;;;10.07;8.27;;;;;;;20.22;66.44;96989.97;4984833;28;20219;-56
2022/07/25 04:11:24;;;;;;;12.60;8.27;;;;;;;20.09;66.87;96992.56;4985032;28;20092;-57
2022/07/25 04:13:51;;;;;;;9.40;7.63;;;;;;;20.05;67.34;96983.34;4984781;28;20441;-57
2022/07/25 04:16:17;;;;;;;10.00;8.10;;;;;;;20.02;67.47;96981.28;4983213;28;20461;-57
2022/07/25 04:18:49;;;;;;;11.68;8.48;;;;;;;20.05;67.27;96977.84;4984209;28;20556;-58
2022/07/25 04:21:17;;;;;;;10.63;8.48;;;;;;;20.00;67.33;96972.53;4982050;28;20533;-58
2022/07/25 04:23:43;;;;;;;10.13;7.75;;;;;;;20.02;67.21;96984.81;4985010;28;20488;-58
2022/07/25 04:26:10;;;;;;;12.38;9.63;;;;;;;20.07;67.18;96985.78;4984674;28;20579;-57
2022/07/25 04:28:36;;;;;;;10.90;8.63;;;;;;;20.07;67.02;96983.03;4985167;28;20104;-58
2022/07/25 04:31:03;;;;;;;10.48;8.38;;;;;;;20.16;66.95;96980.28;4984233;28;20049;-57
2022/07/25 04:33:30;;;;;;;11.35;8.65;;;;;;;20.12;67.10;96989.16;4984708;28;20050;-58
2022/07/25 04:35:56;;;;;;;10.00;7.85;;;;;;;20.14;66.85;96984.19;4984356;28;20058;-57
2022/07/25 04:38:22;;;;;;;9.73;8.00;;;;;;;20.22;66.51;96981.72;4983726;28;20054;-59
2022/07/25 04:40:49;;;;;;;13.98;8.63;;;;;;;20.35;65.88;96983.47;4985104;28;20294;-59
2022/07/25 04:43:16;;;;;;;12.52;8.10;;;;;;;20.40;66.00;96975.09;4984986;28;20038;-58
2022/07/25 04:45:42;;;;;;;9.70;8.13;;;;;;;20.47;65.52;96985.56;4984705;28;20553;-58
2022/07/25 04:48:09;;;;;;;12.30;8.57;;;;;;;20.60;65.27;96977.47;4991493;28;20046;-58
2022/07/25 04:50:35;;;;;;;10.73;7.90;;;;;;;20.62;64.68;96980.69;4984909;28;20320;-58
2022/07/25 04:53:03;;;;;;;12.18;8.45;;;;;;;20.70;64.55;96981.78;4984134;28;20430;-59
2022/07/25 04:55:31;;;;;;;14.60;8.45;;;;;;;20.74;64.24;96982.75;4983587;28;20155;-58
2022/07/25 04:57:59;;;;;;;9.93;7.70;;;;;;;20.75;64.19;96976.91;4985155;28;20050;-56
2022/07/25 05:00:25;;;;;;;10.20;7.75;;;;;;;20.84;63.74;96976.06;4987455;28;20050;-56
2022/07/25 05:02:52;;;;;;;10.90;7.97;;;;;;;20.93;63.54;96976.88;4989434;28;20093;-57
2022/07/25 05:05:19;;;;;;;10.00;7.63;;;;;;;20.92;63.42;96978.84;4985821;28;20572;-57
2022/07/25 05:07:48;;;;;;;11.60;8.18;;;;;;;21.00;63.31;96973.59;4985606;28;20153;-56
2022/07/25 05:10:15;;;;;;;10.73;7.88;;;;;;;21.08;63.01;96975.50;4984982;28;20518;-58
2022/07/25 05:12:42;;;;;;;9.43;7.70;;;;;;;21.16;62.58;96980.16;4969974;28;20589;-57
2022/07/25 05:15:09;;;;;;;13.55;7.72;;;;;;;21.29;61.74;96980.28;4991116;28;20510;-58
2022/07/25 05:17:35;;;;;;;12.70;7.15;;;;;;;21.43;61.33;96977.28;4985446;28;20050;-58
2022/07/25 05:20:02;;;;;;;11.98;7.80;;;;;;;21.59;60.88;96980.25;4983679;28;20054;-59
2022/07/25 05:22:29;;;;;;;10.10;6.70;;;;;;;21.68;60.51;96977.44;4985108;28;20054;-58
2022/07/25 05:24:55;;;;;;;11.85;7.35;;;;;;;21.81;60.16;96970.88;4984809;28;20599;-59
2022/07/25 05:27:22;;;;;;;7.70;6.90;;;;;;;21.87;60.32;96973.44;4984970;28;20050;-58
2022/07/25 05:29:48;;;;;;;9.20;7.82;;;;;;;21.85;60.86;96962.75;4984843;28;20109;-58
2022/07/25 05:32:15;;;;;;;8.88;7.43;;;;;;;21.79;61.02;96964.09;4984073;28;20042;-58
2022/07/25 05:34:41;;;;;;;9.27;7.35;;;;;;;21.83;60.39;96954.81;4986825;28;20042;-58
2022/07/25 05:37:08;;;;;;;9.88;8.25;;;;;;;21.89;60.22;96957.38;4986413;28;20055;-58
2022/07/25 05:39:36;;;;;;;8.85;7.28;;;;;;;21.92;60.22;96953.94;4985688;28;20477;-57
2022/07/25 05:42:02;;;;;;;9.23;7.63;;;;;;;22.04;59.89;96954.00;4997871;28;20093;-58
2022/07/25 05:44:29;;;;;;;8.85;7.28;;;;;;;22.11;59.51;96958.97;5005913;28;20517;-56
2022/07/25 05:46:55;;;;;;;9.93;6.97;;;;;;;22.22;58.97;96960.16;5004470;28;20528;-59
2022/07/25 05:49:22;;;;;;;10.05;8.32;;;;;;;22.24;58.48;96950.75;4986458;28;20043;-68
2022/07/25 05:51:49;;;;;;;8.93;6.95;;;;;;;22.36;57.80;96948.03;4987153;28;20054;-66
2022/07/25 05:54:15;;;;;;;11.15;8.10;;;;;;;22.44;57.93;96955.41;4987323;28;20038;-70
2022/07/25 05:56:42;;;;;;;10.18;7.20;;;;;;;22.54;58.35;96948.66;4984789;28;20053;-68
2022/07/25 05:59:08;;;;;;;8.68;7.60;;;;;;;22.78;56.91;96943.53;4986388;28;20051;-67
2022/07/25 06:01:35;;;;;;;9.82;6.93;;;;;;;22.93;56.69;96936.53;4988361;28;20129;-67
2022/07/25 06:04:02;;;;;;;9.27;7.30;;;;;;;23.09;56.01;96942.97;4986786;28;20050;-69
2022/07/25 06:06:31;;;;;;;11.02;7.18;;;;;;;23.26;55.27;96936.41;4983824;28;20042;-67
2022/07/25 06:08:58;;;;;;;9.75;7.28;;;;;;;23.39;54.72;96933.66;4983445;28;20057;-69
2022/07/25 06:11:29;;;;;;;8.35;6.93;;;;;;;23.51;54.00;96938.34;4987573;28;20121;-68
2022/07/25 06:13:56;;;;;;;;;;;;;;;23.62;53.48;96924.88;4987783;28;20054;-69
2022/07/25 06:16:23;;;;;;;9.73;6.80;;;;;;;23.69;53.27;96932.56;4987300;28;19933;-68
2022/07/25 06:18:50;;;;;;;10.25;7.55;;;;;;;23.75;52.77;96931.97;4983709;28;20061;-69
2022/07/25 06:21:16;;;;;;;8.50;6.63;;;;;;;23.85;53.14;96927.88;4986970;28;20544;-67
2022/07/25 06:23:43;;;;;;;7.95;6.75;;;;;;;23.93;53.40;96930.88;4987275;28;20061;-67
2022/07/25 06:26:10;;;;;;;10.98;6.80;;;;;;;23.98;53.03;96933.38;4975288;28;20047;-67
2022/07/25 06:28:37;;;;;;;9.27;6.60;;;;;;;24.13;52.75;96918.03;4986366;28;20109;-69
2022/07/25 06:31:04;;;;;;;11.82;6.93;;;;;;;24.21;52.52;96933.66;4987515;28;20034;-67
2022/07/25 06:33:30;;;;;;;10.18;7.18;;;;;;;24.32;52.07;96920.13;4986579;28;20046;-70
2022/07/25 06:35:57;;;;;;;8.27;6.90;;;;;;;24.39;51.95;96923.06;4987018;28;20054;-68
2022/07/25 06:38:23;;;;;;;7.38;6.30;;;;;;;24.49;51.42;96921.75;4986669;28;20050;-67
2022/07/25 06:40:50;;;;;;;10.43;7.43;;;;;;;24.46;52.00;96925.22;4986563;28;20384;-67
2022/07/25 06:43:16;;;;;;;9.07;6.70;;;;;;;24.58;51.84;96920.78;4986775;28;20162;-67
2022/07/25 06:45:46;;;;;;;10.45;7.65;;;;;;;24.57;51.56;96922.75;4986277;28;20061;-69
2022/07/25 06:48:16;;;;;;;10.10;6.80;;;;;;;24.66;51.65;96920.59;4986778;28;20113;-67
2022/07/25 06:50:43;;;;;;;10.30;7.50;;;;;;;24.76;51.59;96919.25;4986264;28;20254;-69
2022/07/25 06:53:10;;;;;;;8.65;7.18;;;;;;;24.88;51.26;96923.13;4986587;28;20046;-67
2022/07/25 06:55:36;;;;;;;8.70;7.03;;;;;;;25.00;51.11;96919.47;4986853;28;20050;-68
2022/07/25 06:58:03;;;;;;;9.60;7.38;;;;;;;25.07;50.50;96923.19;4973517;28;20414;-69
2022/07/25 07:00:29;;;;;;;8.57;6.90;;;;;;;25.19;49.89;96915.94;4985725;28;20101;-69
2022/07/25 07:03:00;;;;;;;9.23;6.82;;;;;;;25.23;50.42;96921.56;4986601;28;20397;-67
2022/07/25 07:05:32;;;;;;;9.50;7.88;;;;;;;25.36;49.63;96913.94;4986277;28;20058;-67
2022/07/25 07:07:59;;;;;;;8.70;7.35;;;;;;;25.52;49.89;96922.22;4986187;28;20066;-69
2022/07/25 07:10:27;;;;;;;8.70;7.07;;;;;;;25.61;48.77;96910.97;4993492;28;20042;-69
2022/07/25 07:13:05;;;;;;;7.93;6.50;;;;;;;25.80;49.25;96922.03;4995190;28;20470;-67
2022/07/25 07:15:33;;;;;;;9.70;7.00;;;;;;;25.92;48.20;96918.34;4985673;28;20048;-67
2022/07/25 07:18:00;;;;;;;9.82;7.88;;;;;;;26.08;47.55;96911.91;4982861;28;20068;-69
2022/07/25 07:20:27;;;;;;;8.27;6.60;;;;;;;26.22;47.98;96922.47;4985491;28;20525;-68
2022/07/25 07:22:53;;;;;;;15.10;8.70;;;;;;;26.33;46.91;96917.97;4985362;28;20042;-68
2022/07/25 07:25:23;;;;;;;9.23;7.35;;;;;;;26.39;46.38;96912.91;4998143;28;20137;-68
2022/07/25 07:27:53;;;;;;;11.65;7.15;;;;;;;26.51;46.56;96913.91;4985548;28;20499;-68
2022/07/25 07:30:20;;;;;;;8.90;6.95;;;;;;;26.61;46.12;96913.28;4985896;28;20565;-68
2022/07/25 07:32:52;;;;;;;9.20;7.05;;;;;;;26.69;46.34;96915.03;4985438;28;20042;-69
2022/07/25 07:35:19;;;;;;;7.90;6.25;;;;;;;26.77;45.92;96909.56;4985834;28;20050;-67
2022/07/25 07:37:46;;;;;;;10.80;7.57;;;;;;;26.91;45.37;96904.28;4985650;28;20072;-68
2022/07/25 07:40:14;;;;;;;7.68;6.53;;;;;;;26.97;44.87;96913.91;4985171;28;20055;-68
2022/07/25 07:42:46;;;;;;;8.18;7.10;;;;;;;27.02;45.17;96910.03;4986214;28;20108;-67
2022/07/25 07:45:18;;;;;;;7.72;6.20;;;;;;;27.24;44.52;96907.56;4985108;28;20050;-68
2022/07/25 07:47:47;;;;;;;8.13;6.60;;;;;;;27.35;44.17;96905.72;4985254;28;20042;-69
2022/07/25 07:50:16;;;;;;;9.52;7.22;;;;;;;27.47;44.66;96901.94;4985134;28;20054;-68
2022/07/25 07:52:44;;;;;;;9.90;7.45;;;;;;;27.52;43.49;96900.78;4985623;28;20409;-68
2022/07/25 07:57:58;;;;;;;10.30;6.93;;;;;;;27.71;43.14;96905.44;4980960;28;20057;-67
2022/07/25 08:00:26;;;;;;;9.20;6.85;;;;;;;27.82;43.27;96900.00;4984459;28;20049;-68
2022/07/25 08:02:54;;;;;;;9.45;7.10;;;;;;;27.79;42.92;96895.22;4984918;28;20038;-68
2022/07/25 08:05:24;;;;;;;7.78;6.10;;;;;;;27.75;43.60;96905.50;4985284;28;20092;-66
2022/07/25 08:07:52;;;;;;;10.30;7.20;;;;;;;27.85;43.00;96899.25;4984873;28;20050;-66
2022/07/25 08:10:26;;;;;;;10.27;7.13;;;;;;;28.10;42.49;96900.72;4977392;28;20047;-66
2022/07/25 08:12:52;;;;;;;8.95;7.05;;;;;;;28.06;42.81;96903.47;4984857;28;20043;-67
2022/07/25 08:15:20;;;;;;;8.23;6.60;;;;;;;28.14;42.08;96902.38;4984917;28;20054;-67
2022/07/25 08:17:49;;;;;;;8.35;6.90;;;;;;;28.29;40.46;96905.34;4984948;28;20057;-67
2022/07/25 08:20:17;;;;;;;8.75;6.72;;;;;;;28.26;40.99;96911.69;4983555;28;20096;-68
2022/07/25 08:23:04;;;;;;;8.95;6.75;;;;;;;28.59;40.76;96910.00;4985239;28;20042;-66
2022/07/25 08:25:31;;;;;;;7.53;6.65;;;;;;;28.64;40.73;96903.28;4978193;28;20086;-66
2022/07/25 08:27:58;;;;;;;9.52;6.85;;;;;;;28.75;39.95;96914.53;4975603;28;20557;-66
2022/07/25 08:30:24;;;;;;;7.93;6.90;;;;;;;28.80;39.97;96914.16;4984925;28;20050;-66
2022/07/25 08:32:59;;;;;;;7.68;6.63;;;;;;;28.82;38.86;96914.59;4984099;28;20041;-65
2022/07/25 08:35:27;;;;;;;7.40;6.50;;;;;;;28.97;38.47;96915.53;4983214;28;20494;-65
2022/07/25 08:37:54;;;;;;;7.18;6.07;;;;;;;28.98;38.67;96913.53;4984655;28;20050;-65
2022/07/25 08:40:24;;;;;;;11.05;6.18;;;;;;;28.92;38.25;96915.88;4982829;28;20095;-65
2022/07/25 08:42:51;;;;;;;8.10;6.55;;;;;;;28.93;38.87;96921.06;4986922;28;20105;-65
2022/07/25 08:45:19;;;;;;;7.00;6.10;;;;;;;29.00;37.94;96911.19;4986325;28;20042;-65
2022/07/25 08:47:47;;;;;;;9.20;6.00;;;;;;;29.32;37.81;96918.94;4985791;28;20048;-65
2022/07/25 08:50:17;;;;;;;9.02;6.38;;;;;;;29.43;37.59;96919.81;4984066;28;20061;-66
2022/07/25 08:52:46;;;;;;;7.85;6.30;;;;;;;29.45;36.77;96917.44;4984748;28;20051;-65
2022/07/25 08:55:18;;;;;;;7.82;6.40;;;;;;;29.40;37.10;96919.81;4984523;28;20030;-66
2022/07/25 08:57:51;;;;;;;8.05;6.13;;;;;;;29.50;36.06;96915.47;4971303;28;20425;-66
2022/07/25 09:00:23;;;;;;;7.55;6.10;;;;;;;29.62;35.68;96911.59;4984298;28;20050;-66
2022/07/25 09:02:58;;;;;;;6.30;5.50;;;;;;;29.64;35.51;96917.56;4984085;28;20046;-64
2022/07/25 09:05:26;;;;;;;7.25;5.78;;;;;;;29.91;35.43;96904.16;4984364;28;20062;-64
2022/07/25 09:07:55;;;;;;;7.07;5.97;;;;;;;29.97;35.18;96902.56;4984407;28;20101;-64
2022/07/25 09:10:27;;;;;;;8.75;5.88;;;;;;;29.98;34.77;96904.19;4981673;28;20510;-64
2022/07/25 09:12:53;;;;;;;6.05;5.15;;;;;;;29.99;34.03;96908.56;4984302;28;20046;-63
2022/07/25 09:15:31;;;;;;;6.25;5.20;;;;;;;30.23;33.53;96888.72;4983676;28;20482;-63
2022/07/25 09:18:01;;;;;;;5.80;5.18;;;;;;;30.44;33.22;96892.75;4984688;28;20568;-64
2022/07/25 09:20:36;;;;;;;8.32;5.28;;;;;;;30.53;33.72;96895.94;4980599;28;20043;-64
2022/07/25 09:23:03;;;;;;;9.73;5.45;;;;;;;30.61;33.28;96897.56;4985334;28;20042;-63
2022/07/25 09:25:30;;;;;;;6.30;5.28;;;;;;;30.97;33.30;96893.19;4987914;28;20349;-63
2022/07/25 09:28:10;;;;;;;6.18;5.40;;;;;;;30.92;32.38;96894.41;4988501;28;20049;-64
2022/07/25 09:30:38;;;;;;;7.22;5.95;;;;;;;30.68;33.99;96893.97;4988237;28;20521;-63
2022/07/25 09:33:05;;;;;;;6.97;5.15;;;;;;;30.63;33.39;96886.78;4989020;28;20298;-63
2022/07/25 09:35:35;;;;;;;8.95;5.72;;;;;;;30.60;34.63;96886.78;4990359;28;20458;-64
2022/07/25 09:38:08;;;;;;;7.68;5.70;;;;;;;30.78;33.84;96883.22;4990914;28;20058;-64
2022/07/25 09:40:35;;;;;;;6.57;5.22;;;;;;;30.72;34.51;96878.03;4989288;28;20453;-63
2022/07/25 09:43:01;;;;;;;6.65;5.50;;;;;;;30.64;33.48;96884.78;4990642;28;20512;-63
2022/07/25 09:45:28;;;;;;;8.35;5.40;;;;;;;30.71;33.76;96875.59;4989751;28;20049;-63
2022/07/25 09:48:03;;;;;;;8.07;4.68;;;;;;;30.79;31.82;96887.59;4989136;28;20115;-64
2022/07/25 09:50:31;;;;;;;6.70;4.80;;;;;;;30.95;30.96;96878.81;4990249;28;20452;-63
2022/07/25 09:53:01;;;;;;;6.47;4.97;;;;;;;31.05;31.72;96891.97;4988874;28;20069;-64
2022/07/25 09:55:28;;;;;;;5.25;3.58;;;;;;;31.24;28.21;96878.75;4989867;28;20121;-63
2022/07/25 09:57:55;;;;;;;6.40;3.55;;;;;;;31.44;27.50;96875.56;4989798;28;20502;-64
2022/07/25 10:00:26;;;;;;;6.20;3.97;;;;;;;31.72;27.60;96863.47;4988972;28;20469;-64
2022/07/25 10:03:23;;;;;;;6.13;4.40;;;;;;;31.64;29.22;96868.31;4986722;28;20120;-64
2022/07/25 10:06:02;;;;;;;5.82;4.18;;;;;;;31.65;29.30;96864.28;4986805;28;20149;-64
2022/07/25 10:08:34;;;;;;;7.13;4.05;;;;;;;31.58;28.78;96860.72;4986190;28;20050;-64
2022/07/25 10:11:01;;;;;;;5.75;3.75;;;;;;;31.71;29.16;96869.47;4986272;28;20057;-63
2022/07/25 10:13:33;;;;;;;5.43;4.10;;;;;;;31.67;28.64;96844.31;4981354;28;20494;-63
2022/07/25 10:16:00;;;;;;;5.22;3.95;;;;;;;31.66;28.87;96848.31;4985192;28;20050;-63
2022/07/25 10:18:29;;;;;;;5.68;4.40;;;;;;;31.71;29.34;96850.69;4984175;28;20050;-63
2022/07/25 10:21:10;;;;;;;7.50;4.63;;;;;;;31.89;29.53;96861.84;4988491;28;20054;-63
2022/07/25 10:24:03;;;;;;;7.05;4.88;;;;;;;31.87;29.37;96855.81;4989668;28;20044;-63
2022/07/25 10:26:32;;;;;;;5.90;4.65;;;;;;;31.86;29.23;96845.00;4989224;28;20046;-64
2022/07/25 10:29:00;;;;;;;5.20;4.03;;;;;;;31.88;29.82;96851.00;4989487;28;20038;-64
2022/07/25 10:31:36;;;;;;;6.68;4.40;;;;;;;31.82;29.76;96858.22;4988613;28;20476;-64
2022/07/25 10:34:04;;;;;;;5.80;4.32;;;;;;;31.83;29.49;96845.84;4988072;28;20042;-64
2022/07/25 10:36:49;;;;;;;6.90;4.50;;;;;;;32.18;29.76;96839.25;4987760;28;20050;-63
2022/07/25 10:39:18;;;;;;;6.78;4.60;;;;;;;32.24;28.38;96842.41;4988142;28;20038;-64
2022/07/25 10:41:54;;;;;;;5.10;3.78;;;;;;;32.34;28.86;96842.75;4988023;28;20050;-64
2022/07/25 10:44:21;;;;;;;6.10;4.10;;;;;;;32.33;28.98;96827.16;4988951;28;20498;-64
2022/07/25 10:46:49;;;;;;;7.13;4.57;;;;;;;32.33;28.08;96832.75;4988031;28;20046;-64
2022/07/25 10:49:21;;;;;;;6.45;4.43;;;;;;;32.29;28.14;96830.78;4988367;28;20053;-64
2022/07/25 10:52:02;;;;;;;6.03;4.70;;;;;;;32.19;28.12;96820.44;4988264;28;20050;-64
2022/07/25 10:54:37;;;;;;;6.93;4.25;;;;;;;32.50;28.68;96825.47;4988710;28;20039;-64
2022/07/25 10:57:05;;;;;;;5.55;4.30;;;;;;;32.60;28.17;96818.97;4968871;28;20047;-64
2022/07/25 10:59:38;;;;;;;5.60;4.18;;;;;;;32.73;27.82;96804.44;4969324;28;20058;-63
2022/07/25 11:02:07;;;;;;;5.95;4.20;;;;;;;32.88;27.00;96811.53;4968139;28;20527;-64
2022/07/25 11:04:35;;;;;;;7.43;4.55;;;;;;;33.24;26.89;96801.97;4981694;28;20038;-64
2022/07/25 11:07:13;;;;;;;5.78;3.95;;;;;;;33.33;26.50;96799.44;4988803;28;20042;-64
2022/07/25 11:09:41;;;;;;;6.43;4.35;;;;;;;33.34;26.40;96803.84;4987741;28;20125;-64
2022/07/25 11:12:08;;;;;;;5.55;4.35;;;;;;;33.64;26.75;96804.28;4988063;28;20042;-64
2022/07/25 11:14:40;;;;;;;4.93;3.58;;;;;;;33.89;25.71;96799.56;4988540;28;20549;-64
2022/07/25 11:17:14;;;;;;;6.25;4.35;;;;;;;33.80;26.17;96803.69;4985532;28;20042;-64
2022/07/25 11:19:43;;;;;;;6.45;4.18;;;;;;;33.68;25.44;96798.66;4984265;28;20424;-63
2022/07/25 11:22:09;;;;;;;5.30;3.90;;;;;;;34.26;25.43;96786.59;4985796;28;20046;-64
2022/07/25 11:24:40;;;;;;;5.05;3.88;;;;;;;34.58;25.16;96785.28;4986660;28;20057;-64
2022/07/25 11:27:19;;;;;;;6.03;4.07;;;;;;;34.81;23.96;96791.31;4973465;28;20049;-64
2022/07/25 11:29:45;;;;;;;4.63;3.40;;;;;;;35.14;23.51;96780.28;4985452;28;20038;-64
2022/07/25 11:32:12;;;;;;;5.68;3.83;;;;;;;35.56;23.77;96784.69;4986151;28;20046;-64
2022/07/25 11:34:42;;;;;;;5.63;4.43;;;;;;;35.45;24.56;96788.50;4985568;28;20054;-64
2022/07/25 11:37:11;;;;;;;4.95;4.00;;;;;;;35.56;24.88;96779.84;4985839;28;21074;-64